sensor_id;sensor_type;location;lat;lon;timestamp;pressure;altitude;pressure_sealevel;temperature;humidity
28628;BME280;15815;46.760;19.604;2022-12-20T00:01:17;102180.78;;;-2.31;100.00
28628;BME280;15815;46.760;19.604;2022-12-20T00:03:44;102192.63;;;-2.25;100.00
28628;BME280;15815;46.760;19.604;2022-12-20T00:06:10;102197.31;;;-2.26;100.00
28628;BME280;15815;46.760;19.604;2022-12-20T00:08:37;102190.69;;;-2.25;100.00
28628;BME280;15815;46.760;19.604;2022-12-20T00:11:05;102192.91;;;-2.27;100.00
28628;BME280;15815;46.760;19.604;2022-12-20T00:13:32;102189.31;;;-2.27;100.00
28628;BME280;15815;46.760;19.604;2022-12-20T00:18:34;102180.78;;;-2.31;100.00
28628;BME280;15815;46.760;19.604;2022-12-20T00:21:02;102179.13;;;-2.32;100.00
28628;BME280;15815;46.760;19.604;2022-12-20T00:23:28;102172.53;;;-2.31;100.00
28628;BME280;15815;46.760;19.604;2022-12-20T00:26:11;102169.75;;;-2.31;100.00
28628;BME280;15815;46.760;19.604;2022-12-20T00:28:39;102168.66;;;-2.30;100.00
28628;BME280;15815;46.760;19.604;2022-12-20T00:31:05;102169.75;;;-2.31;100.00
28628;BME280;15815;46.760;19.604;2022-12-20T00:33:31;102172.53;;;-2.26;100.00
28628;BME280;15815;46.760;19.604;2022-12-20T00:35:57;102162.06;;;-2.34;100.00
28628;BME280;15815;46.760;19.604;2022-12-20T00:38:24;102162.88;;;-2.33;100.00
28628;BME280;15815;46.760;19.604;2022-12-20T00:41:10;102172.53;;;-2.26;100.00
28628;BME280;15815;46.760;19.604;2022-12-20T00:43:37;102173.63;;;-2.27;100.00
28628;BME280;15815;46.760;19.604;2022-12-20T00:46:03;102176.38;;;-2.27;100.00
28628;BME280;15815;46.760;19.604;2022-12-20T00:48:30;102162.31;;;-2.35;100.00
28628;BME280;15815;46.760;19.604;2022-12-20T00:51:00;102172.25;;;-2.29;100.00
28628;BME280;15815;46.760;19.604;2022-12-20T00:53:27;102174.44;;;-2.31;100.00
28628;BME280;15815;46.760;19.604;2022-12-20T00:55:52;102166.44;;;-2.38;100.00
28628;BME280;15815;46.760;19.604;2022-12-20T00:58:18;102182.72;;;-2.26;100.00
28628;BME280;15815;46.760;19.604;2022-12-20T01:00:43;102189.59;;;-2.24;100.00
28628;BME280;15815;46.760;19.604;2022-12-20T01:03:09;102171.69;;;-2.31;100.00
28628;BME280;15815;46.760;19.604;2022-12-20T01:05:35;102175.28;;;-2.26;100.00
28628;BME280;15815;46.760;19.604;2022-12-20T01:08:00;102164.25;;;-2.26;100.00
28628;BME280;15815;46.760;19.604;2022-12-20T01:10:26;102154.34;;;-2.32;100.00
28628;BME280;15815;46.760;19.604;2022-12-20T01:12:52;102165.63;;;-2.23;100.00
28628;BME280;15815;46.760;19.604;2022-12-20T01:15:18;102170.34;;;-2.19;100.00
28628;BME280;15815;46.760;19.604;2022-12-20T01:17:44;102157.13;;;-2.16;100.00
28628;BME280;15815;46.760;19.604;2022-12-20T01:20:10;102149.13;;;-2.18;100.00
28628;BME280;15815;46.760;19.604;2022-12-20T01:22:35;102137.56;;;-2.15;100.00
28628;BME280;15815;46.760;19.604;2022-12-20T01:25:01;102132.31;;;-2.11;100.00
28628;BME280;15815;46.760;19.604;2022-12-20T01:27:27;102120.75;;;-2.08;100.00
28628;BME280;15815;46.760;19.604;2022-12-20T01:29:52;102114.16;;;-2.12;100.00
28628;BME280;15815;46.760;19.604;2022-12-20T01:32:19;102120.75;;;-2.08;100.00
28628;BME280;15815;46.760;19.604;2022-12-20T01:34:45;102128.72;;;-2.02;100.00
28628;BME280;15815;46.760;19.604;2022-12-20T01:37:11;102113.56;;;-2.04;100.00
28628;BME280;15815;46.760;19.604;2022-12-20T01:39:39;102121.28;;;-1.96;100.00
28628;BME280;15815;46.760;19.604;2022-12-20T01:42:05;102111.38;;;-1.97;100.00
28628;BME280;15815;46.760;19.604;2022-12-20T01:46:56;102111.09;;;-1.91;99.94
28628;BME280;15815;46.760;19.604;2022-12-20T01:49:26;102106.41;;;-1.85;99.95
28628;BME280;15815;46.760;19.604;2022-12-20T01:52:08;102103.09;;;-1.92;100.00
28628;BME280;15815;46.760;19.604;2022-12-20T02:00:04;102093.72;;;-1.81;100.00
28628;BME280;15815;46.760;19.604;2022-12-20T02:02:31;102088.47;;;-1.77;99.61
28628;BME280;15815;46.760;19.604;2022-12-20T02:04:57;102076.91;;;-1.79;99.29
28628;BME280;15815;46.760;19.604;2022-12-20T02:07:25;102081.28;;;-1.73;99.78
28628;BME280;15815;46.760;19.604;2022-12-20T02:09:53;102104.72;;;-1.71;99.51
28628;BME280;15815;46.760;19.604;2022-12-20T02:12:30;102093.69;;;-1.71;99.06
28628;BME280;15815;46.760;19.604;2022-12-20T02:21:01;102079.88;;;-1.66;99.22
28628;BME280;15815;46.760;19.604;2022-12-20T02:34:41;102073.25;;;-1.65;98.53
28628;BME280;15815;46.760;19.604;2022-12-20T02:37:08;102084.00;;;-1.53;98.84
28628;BME280;15815;46.760;19.604;2022-12-20T02:39:35;102070.50;;;-1.54;98.56
28628;BME280;15815;46.760;19.604;2022-12-20T02:42:08;102084.25;;;-1.44;98.25
28628;BME280;15815;46.760;19.604;2022-12-20T02:44:40;102076.78;;;-1.44;98.29
28628;BME280;15815;46.760;19.604;2022-12-20T02:47:12;102070.72;;;-1.41;98.17
28628;BME280;15815;46.760;19.604;2022-12-20T02:49:42;102062.16;;;-1.39;98.58
28628;BME280;15815;46.760;19.604;2022-12-20T02:52:11;102034.06;;;-1.46;98.35
28628;BME280;15815;46.760;19.604;2022-12-20T02:54:39;102038.19;;;-1.44;98.01
28628;BME280;15815;46.760;19.604;2022-12-20T02:57:15;102040.63;;;-1.37;98.13
28628;BME280;15815;46.760;19.604;2022-12-20T02:59:56;102045.06;;;-1.36;98.17
28628;BME280;15815;46.760;19.604;2022-12-20T03:02:25;102037.03;;;-1.38;98.52
28628;BME280;15815;46.760;19.604;2022-12-20T03:04:54;102037.31;;;-1.39;97.96
28628;BME280;15815;46.760;19.604;2022-12-20T03:07:21;102034.84;;;-1.41;97.68
28628;BME280;15815;46.760;19.604;2022-12-20T03:09:48;102024.09;;;-1.42;97.89
28628;BME280;15815;46.760;19.604;2022-12-20T03:12:14;102030.16;;;-1.40;97.36
28628;BME280;15815;46.760;19.604;2022-12-20T03:14:40;102030.16;;;-1.35;97.04
28628;BME280;15815;46.760;19.604;2022-12-20T03:17:07;102032.34;;;-1.37;97.11
28628;BME280;15815;46.760;19.604;2022-12-20T03:19:32;102032.91;;;-1.35;97.59
28628;BME280;15815;46.760;19.604;2022-12-20T03:21:58;102037.63;;;-1.36;97.52
28628;BME280;15815;46.760;19.604;2022-12-20T03:24:25;102023.00;;;-1.36;97.40
28628;BME280;15815;46.760;19.604;2022-12-20T03:26:50;102010.31;;;-1.42;97.83
28628;BME280;15815;46.760;19.604;2022-12-20T03:29:16;102022.41;;;-1.38;97.48
28628;BME280;15815;46.760;19.604;2022-12-20T03:31:41;102008.13;;;-1.45;97.13
28628;BME280;15815;46.760;19.604;2022-12-20T03:34:07;102010.28;;;-1.37;97.45
28628;BME280;15815;46.760;19.604;2022-12-20T03:36:33;102003.13;;;-1.38;97.04
28628;BME280;15815;46.760;19.604;2022-12-20T03:38:59;102008.09;;;-1.40;97.63
28628;BME280;15815;46.760;19.604;2022-12-20T03:41:25;102004.50;;;-1.41;97.21
28628;BME280;15815;46.760;19.604;2022-12-20T03:43:51;102013.88;;;-1.32;97.03
28628;BME280;15815;46.760;19.604;2022-12-20T03:46:16;102023.75;;;-1.26;96.44
28628;BME280;15815;46.760;19.604;2022-12-20T03:48:42;102027.38;;;-1.30;96.91
28628;BME280;15815;46.760;19.604;2022-12-20T03:51:08;102030.09;;;-1.25;96.98
28628;BME280;15815;46.760;19.604;2022-12-20T03:53:34;101986.09;;;-1.50;97.00
28628;BME280;15815;46.760;19.604;2022-12-20T03:55:59;102014.69;;;-1.31;97.11
28628;BME280;15815;46.760;19.604;2022-12-20T03:58:25;102011.38;;;-1.38;96.32
28628;BME280;15815;46.760;19.604;2022-12-20T04:00:50;102007.56;;;-1.42;96.50
28628;BME280;15815;46.760;19.604;2022-12-20T04:03:16;102019.66;;;-1.33;96.62
28628;BME280;15815;46.760;19.604;2022-12-20T04:05:41;102014.16;;;-1.38;96.58
28628;BME280;15815;46.760;19.604;2022-12-20T04:08:07;102018.00;;;-1.39;96.35
28628;BME280;15815;46.760;19.604;2022-12-20T04:10:32;102018.00;;;-1.39;96.39
28628;BME280;15815;46.760;19.604;2022-12-20T04:12:58;102010.88;;;-1.45;96.66
28628;BME280;15815;46.760;19.604;2022-12-20T04:15:24;102016.38;;;-1.40;96.63
28628;BME280;15815;46.760;19.604;2022-12-20T04:17:50;101997.16;;;-1.56;96.75
28628;BME280;15815;46.760;19.604;2022-12-20T04:20:16;102004.81;;;-1.47;96.76
28628;BME280;15815;46.760;19.604;2022-12-20T04:22:41;102007.63;;;-1.58;96.88
28628;BME280;15815;46.760;19.604;2022-12-20T04:25:07;102011.75;;;-1.55;96.94
28628;BME280;15815;46.760;19.604;2022-12-20T04:27:32;102008.97;;;-1.50;96.58
28628;BME280;15815;46.760;19.604;2022-12-20T04:29:58;102016.69;;;-1.47;96.77
28628;BME280;15815;46.760;19.604;2022-12-20T04:32:24;102004.84;;;-1.52;96.73
28628;BME280;15815;46.760;19.604;2022-12-20T04:34:50;101992.75;;;-1.57;97.24
28628;BME280;15815;46.760;19.604;2022-12-20T04:37:15;101993.84;;;-1.58;96.67
28628;BME280;15815;46.760;19.604;2022-12-20T04:39:44;101998.28;;;-1.62;96.80
28628;BME280;15815;46.760;19.604;2022-12-20T04:42:09;102000.72;;;-1.55;96.54
28628;BME280;15815;46.760;19.604;2022-12-20T04:44:35;101991.13;;;-1.63;96.94
28628;BME280;15815;46.760;19.604;2022-12-20T04:47:01;101985.59;;;-1.63;97.05
28628;BME280;15815;46.760;19.604;2022-12-20T04:49:26;101991.66;;;-1.66;97.14
28628;BME280;15815;46.760;19.604;2022-12-20T04:51:52;101992.75;;;-1.62;96.55
28628;BME280;15815;46.760;19.604;2022-12-20T04:54:17;101995.50;;;-1.67;96.83
28628;BME280;15815;46.760;19.604;2022-12-20T04:56:43;101993.03;;;-1.68;97.38
28628;BME280;15815;46.760;19.604;2022-12-20T04:59:08;101991.66;;;-1.66;96.72
28628;BME280;15815;46.760;19.604;2022-12-20T05:01:34;101987.00;;;-1.75;96.23
28628;BME280;15815;46.760;19.604;2022-12-20T05:03:59;101965.25;;;-1.82;96.76
28628;BME280;15815;46.760;19.604;2022-12-20T05:06:25;101968.56;;;-1.80;97.21
28628;BME280;15815;46.760;19.604;2022-12-20T05:08:51;101959.78;;;-1.87;97.19
28628;BME280;15815;46.760;19.604;2022-12-20T05:11:16;101979.59;;;-1.80;96.78
28628;BME280;15815;46.760;19.604;2022-12-20T05:13:42;101992.53;;;-1.75;96.75
28628;BME280;15815;46.760;19.604;2022-12-20T05:16:07;101981.81;;;-1.82;96.90
28628;BME280;15815;46.760;19.604;2022-12-20T05:18:33;101973.56;;;-1.87;96.93
28628;BME280;15815;46.760;19.604;2022-12-20T05:20:59;101968.03;;;-1.92;97.42
28628;BME280;15815;46.760;19.604;2022-12-20T05:23:26;101955.38;;;-1.98;96.74
28628;BME280;15815;46.760;19.604;2022-12-20T05:25:52;101985.66;;;-1.83;96.48
28628;BME280;15815;46.760;19.604;2022-12-20T05:28:18;101983.50;;;-1.91;96.53
28628;BME280;15815;46.760;19.604;2022-12-20T05:30:43;101976.59;;;-1.94;96.77
28628;BME280;15815;46.760;19.604;2022-12-20T05:33:09;102000.84;;;-1.91;97.17
28628;BME280;15815;46.760;19.604;2022-12-20T05:35:34;101984.59;;;-1.97;97.21
28628;BME280;15815;46.760;19.604;2022-12-20T05:38:00;101997.53;;;-1.93;96.86
28628;BME280;15815;46.760;19.604;2022-12-20T05:40:25;101987.91;;;-2.00;97.29
28628;BME280;15815;46.760;19.604;2022-12-20T05:42:51;101980.22;;;-2.08;97.08
28628;BME280;15815;46.760;19.604;2022-12-20T05:45:16;101978.31;;;-2.13;96.87
28628;BME280;15815;46.760;19.604;2022-12-20T05:47:42;101971.69;;;-2.22;96.83
28628;BME280;15815;46.760;19.604;2022-12-20T05:50:10;101985.22;;;-2.15;96.85
28628;BME280;15815;46.760;19.604;2022-12-20T05:52:36;101976.41;;;-2.17;96.99
28628;BME280;15815;46.760;19.604;2022-12-20T05:55:01;101982.44;;;-2.21;97.13
28628;BME280;15815;46.760;19.604;2022-12-20T05:57:27;101981.06;;;-2.23;97.34
28628;BME280;15815;46.760;19.604;2022-12-20T05:59:53;101973.63;;;-2.28;97.14
28628;BME280;15815;46.760;19.604;2022-12-20T06:02:18;101957.66;;;-2.31;97.01
28628;BME280;15815;46.760;19.604;2022-12-20T06:04:44;101968.16;;;-2.33;97.59
28628;BME280;15815;46.760;19.604;2022-12-20T06:07:09;101962.66;;;-2.38;97.60
28628;BME280;15815;46.760;19.604;2022-12-20T06:09:35;101977.78;;;-2.30;97.74
28628;BME280;15815;46.760;19.604;2022-12-20T06:12:00;101977.50;;;-2.34;97.39
28628;BME280;15815;46.760;19.604;2022-12-20T06:14:26;101975.59;;;-2.33;97.30
28628;BME280;15815;46.760;19.604;2022-12-20T06:16:51;101975.84;;;-2.30;97.67
28628;BME280;15815;46.760;19.604;2022-12-20T06:19:17;101959.63;;;-2.36;96.96
28628;BME280;15815;46.760;19.604;2022-12-20T06:21:46;101954.66;;;-2.34;97.32
28628;BME280;15815;46.760;19.604;2022-12-20T06:24:12;101965.09;;;-2.26;97.08
28628;BME280;15815;46.760;19.604;2022-12-20T06:26:38;101960.41;;;-2.26;97.50
28628;BME280;15815;46.760;19.604;2022-12-20T06:29:05;101973.34;;;-2.21;96.99
28628;BME280;15815;46.760;19.604;2022-12-20T06:31:32;101972.53;;;-2.22;97.04
28628;BME280;15815;46.760;19.604;2022-12-20T06:33:57;101949.69;;;-2.27;96.93
28628;BME280;15815;46.760;19.604;2022-12-20T06:36:23;101956.00;;;-2.11;96.22
28628;BME280;15815;46.760;19.604;2022-12-20T06:38:48;101966.97;;;-2.01;96.45
28628;BME280;15815;46.760;19.604;2022-12-20T06:41:14;101969.16;;;-1.93;95.55
28628;BME280;15815;46.760;19.604;2022-12-20T06:43:40;101958.13;;;-1.98;95.52
28628;BME280;15815;46.760;19.604;2022-12-20T06:46:06;101965.56;;;-1.89;95.22
28628;BME280;15815;46.760;19.604;2022-12-20T06:48:32;101972.41;;;-1.76;94.92
28628;BME280;15815;46.760;19.604;2022-12-20T06:50:57;101964.66;;;-1.69;94.48
28628;BME280;15815;46.760;19.604;2022-12-20T06:53:23;101967.09;;;-1.57;94.30
28628;BME280;15815;46.760;19.604;2022-12-20T06:55:49;101981.06;;;-1.43;93.75
28628;BME280;15815;46.760;19.604;2022-12-20T06:58:16;101975.47;;;-1.23;93.33
28628;BME280;15815;46.760;19.604;2022-12-20T07:00:41;101970.88;;;-0.99;92.52
28628;BME280;15815;46.760;19.604;2022-12-20T07:03:07;101966.94;;;-0.87;91.38
28628;BME280;15815;46.760;19.604;2022-12-20T07:05:33;101984.25;;;-0.43;90.35
28628;BME280;15815;46.760;19.604;2022-12-20T07:07:58;101950.25;;;-0.14;88.89
28628;BME280;15815;46.760;19.604;2022-12-20T07:10:25;101944.84;;;-0.01;87.64
28628;BME280;15815;46.760;19.604;2022-12-20T07:12:51;101937.44;;;-0.05;86.73
28628;BME280;15815;46.760;19.604;2022-12-20T07:15:17;101933.69;;;0.10;86.08
28628;BME280;15815;46.760;19.604;2022-12-20T07:17:43;101948.94;;;0.26;84.77
28628;BME280;15815;46.760;19.604;2022-12-20T07:20:08;101941.38;;;0.37;83.62
28628;BME280;15815;46.760;19.604;2022-12-20T07:22:34;101943.22;;;0.84;83.42
28628;BME280;15815;46.760;19.604;2022-12-20T07:25:00;101950.97;;;1.19;82.30
28628;BME280;15815;46.760;19.604;2022-12-20T07:27:25;101944.19;;;1.26;80.25
28628;BME280;15815;46.760;19.604;2022-12-20T07:29:51;101947.78;;;1.59;80.00
28628;BME280;15815;46.760;19.604;2022-12-20T07:32:17;101958.81;;;1.77;79.50
28628;BME280;15815;46.760;19.604;2022-12-20T07:34:43;101934.06;;;1.67;76.83
28628;BME280;15815;46.760;19.604;2022-12-20T07:37:09;101926.63;;;1.95;75.83
28628;BME280;15815;46.760;19.604;2022-12-20T07:39:35;101920.44;;;2.26;74.83
28628;BME280;15815;46.760;19.604;2022-12-20T07:42:00;101923.69;;;2.55;74.24
28628;BME280;15815;46.760;19.604;2022-12-20T07:44:26;101904.00;;;2.65;72.25
28628;BME280;15815;46.760;19.604;2022-12-20T07:46:51;101913.66;;;2.82;71.44
28628;BME280;15815;46.760;19.604;2022-12-20T07:49:17;101913.66;;;2.82;71.53
28628;BME280;15815;46.760;19.604;2022-12-20T07:51:44;101903.28;;;2.96;71.58
28628;BME280;15815;46.760;19.604;2022-12-20T07:54:23;101895.25;;;3.08;70.00
28628;BME280;15815;46.760;19.604;2022-12-20T07:56:53;101895.25;;;3.08;70.37
28628;BME280;15815;46.760;19.604;2022-12-20T07:59:27;101893.19;;;3.00;68.40
28628;BME280;15815;46.760;19.604;2022-12-20T08:01:54;101900.59;;;3.04;69.18
28628;BME280;15815;46.760;19.604;2022-12-20T08:04:25;101909.31;;;3.34;70.25
28628;BME280;15815;46.760;19.604;2022-12-20T08:06:52;101904.44;;;3.17;68.19
28628;BME280;15815;46.760;19.604;2022-12-20T08:09:19;101917.19;;;3.40;68.48
28628;BME280;15815;46.760;19.604;2022-12-20T08:11:46;101907.22;;;3.39;66.80
28628;BME280;15815;46.760;19.604;2022-12-20T08:14:13;101917.56;;;3.25;67.14
28628;BME280;15815;46.760;19.604;2022-12-20T08:16:38;101929.50;;;3.48;67.64
28628;BME280;15815;46.760;19.604;2022-12-20T08:19:04;101911.31;;;3.42;67.77
28628;BME280;15815;46.760;19.604;2022-12-20T08:21:30;101917.53;;;3.39;66.83
28628;BME280;15815;46.760;19.604;2022-12-20T08:23:55;101910.50;;;3.41;67.33
28628;BME280;15815;46.760;19.604;2022-12-20T08:26:21;101920.47;;;3.65;66.81
28628;BME280;15815;46.760;19.604;2022-12-20T08:28:47;101939.59;;;3.66;65.84
28628;BME280;15815;46.760;19.604;2022-12-20T08:31:12;101933.59;;;3.51;65.59
28628;BME280;15815;46.760;19.604;2022-12-20T08:33:39;101912.31;;;3.77;65.30
28628;BME280;15815;46.760;19.604;2022-12-20T08:36:08;101921.56;;;3.86;64.41
28628;BME280;15815;46.760;19.604;2022-12-20T08:38:34;101916.38;;;4.11;64.15
28628;BME280;15815;46.760;19.604;2022-12-20T08:41:07;101912.53;;;4.38;62.89
28628;BME280;15815;46.760;19.604;2022-12-20T08:43:33;101900.31;;;4.64;61.32
28628;BME280;15815;46.760;19.604;2022-12-20T08:45:59;101911.31;;;5.04;60.85
28628;BME280;15815;46.760;19.604;2022-12-20T08:48:26;101919.44;;;5.61;59.46
28628;BME280;15815;46.760;19.604;2022-12-20T08:50:56;101890.16;;;5.84;59.48
28628;BME280;15815;46.760;19.604;2022-12-20T08:53:22;101895.56;;;5.89;58.60
28628;BME280;15815;46.760;19.604;2022-12-20T08:55:48;101899.56;;;6.18;57.18
28628;BME280;15815;46.760;19.604;2022-12-20T08:58:14;101913.16;;;6.99;56.25
28628;BME280;15815;46.760;19.604;2022-12-20T09:00:39;101902.66;;;6.96;54.58
28628;BME280;15815;46.760;19.604;2022-12-20T09:03:05;101905.19;;;7.43;53.69
28628;BME280;15815;46.760;19.604;2022-12-20T09:05:30;101909.19;;;7.21;52.84
28628;BME280;15815;46.760;19.604;2022-12-20T09:07:56;101892.34;;;7.42;52.61
28628;BME280;15815;46.760;19.604;2022-12-20T09:10:21;101902.47;;;7.92;51.65
28628;BME280;15815;46.760;19.604;2022-12-20T09:12:47;101896.44;;;8.02;51.11
28628;BME280;15815;46.760;19.604;2022-12-20T09:15:12;101870.78;;;8.24;50.45
28628;BME280;15815;46.760;19.604;2022-12-20T09:17:38;101881.03;;;8.20;50.79
28628;BME280;15815;46.760;19.604;2022-12-20T09:20:05;101890.31;;;6.97;52.13
28628;BME280;15815;46.760;19.604;2022-12-20T09:22:31;101902.72;;;6.08;53.53
28628;BME280;15815;46.760;19.604;2022-12-20T09:24:56;101894.84;;;5.46;55.47
28628;BME280;15815;46.760;19.604;2022-12-20T09:27:22;101875.25;;;4.99;56.75
28628;BME280;15815;46.760;19.604;2022-12-20T09:29:47;101856.25;;;4.75;57.10
28628;BME280;15815;46.760;19.604;2022-12-20T09:32:13;101874.53;;;5.37;56.46
28628;BME280;15815;46.760;19.604;2022-12-20T09:34:38;101865.59;;;5.69;54.81
28628;BME280;15815;46.760;19.604;2022-12-20T09:37:04;101847.16;;;5.30;55.56
28628;BME280;15815;46.760;19.604;2022-12-20T09:39:30;101844.53;;;5.80;55.20
28628;BME280;15815;46.760;19.604;2022-12-20T09:41:56;101847.28;;;6.48;53.44
28628;BME280;15815;46.760;19.604;2022-12-20T09:44:35;101841.19;;;7.08;52.33
28628;BME280;15815;46.760;19.604;2022-12-20T09:49:30;101815.59;;;7.19;50.25
28628;BME280;15815;46.760;19.604;2022-12-20T10:00:18;101825.38;;;8.83;49.23
28628;BME280;15815;46.760;19.604;2022-12-20T10:02:45;101829.38;;;8.70;47.51
28628;BME280;15815;46.760;19.604;2022-12-20T10:05:24;101827.28;;;8.67;46.41
28628;BME280;15815;46.760;19.604;2022-12-20T10:08:02;101838.22;;;8.84;47.01
28628;BME280;15815;46.760;19.604;2022-12-20T10:10:44;101831.81;;;8.99;47.07
28628;BME280;15815;46.760;19.604;2022-12-20T10:24:18;101842.38;;;9.62;45.43
28628;BME280;15815;46.760;19.604;2022-12-20T10:26:47;101828.31;;;9.78;44.92
28628;BME280;15815;46.760;19.604;2022-12-20T10:29:13;101805.09;;;10.12;44.39
28628;BME280;15815;46.760;19.604;2022-12-20T10:31:42;101795.47;;;10.13;44.54
28628;BME280;15815;46.760;19.604;2022-12-20T10:34:08;101788.38;;;9.53;43.49
28628;BME280;15815;46.760;19.604;2022-12-20T10:36:35;101781.38;;;9.31;42.93
28628;BME280;15815;46.760;19.604;2022-12-20T10:39:06;101759.16;;;9.38;44.50
28628;BME280;15815;46.760;19.604;2022-12-20T10:44:26;101762.31;;;9.68;44.26
28628;BME280;15815;46.760;19.604;2022-12-20T10:46:57;101763.91;;;9.85;43.18
28628;BME280;15815;46.760;19.604;2022-12-20T10:51:57;101749.28;;;9.60;43.80
28628;BME280;15815;46.760;19.604;2022-12-20T10:54:29;101755.00;;;9.32;44.38
28628;BME280;15815;46.760;19.604;2022-12-20T10:57:01;101755.53;;;9.38;44.50
28628;BME280;15815;46.760;19.604;2022-12-20T10:59:38;101727.00;;;9.20;44.75
28628;BME280;15815;46.760;19.604;2022-12-20T11:02:31;101737.66;;;9.77;43.92
28628;BME280;15815;46.760;19.604;2022-12-20T11:07:58;101748.28;;;9.37;43.63
28628;BME280;15815;46.760;19.604;2022-12-20T11:10:28;101738.97;;;9.33;44.04
28628;BME280;15815;46.760;19.604;2022-12-20T11:12:56;101741.41;;;9.34;44.27
28628;BME280;15815;46.760;19.604;2022-12-20T11:15:28;101738.31;;;9.08;44.98
28628;BME280;15815;46.760;19.604;2022-12-20T11:26:24;101707.66;;;9.81;43.79
28628;BME280;15815;46.760;19.604;2022-12-20T11:36:58;101701.94;;;8.67;45.53
28628;BME280;15815;46.760;19.604;2022-12-20T11:52:57;101665.38;;;8.48;46.79
28628;BME280;15815;46.760;19.604;2022-12-20T11:55:43;101664.09;;;8.46;46.84
28628;BME280;15815;46.760;19.604;2022-12-20T11:58:54;101669.34;;;8.47;46.37
28628;BME280;15815;46.760;19.604;2022-12-20T12:01:31;101643.25;;;7.91;46.94
28628;BME280;15815;46.760;19.604;2022-12-20T12:04:24;101666.09;;;8.45;46.54
28628;BME280;15815;46.760;19.604;2022-12-20T12:06:52;101666.00;;;8.42;46.44
28628;BME280;15815;46.760;19.604;2022-12-20T12:09:25;101660.69;;;8.24;47.33
28628;BME280;15815;46.760;19.604;2022-12-20T12:12:09;101640.81;;;8.29;47.50
28628;BME280;15815;46.760;19.604;2022-12-20T12:17:59;101643.25;;;7.51;49.10
28628;BME280;15815;46.760;19.604;2022-12-20T12:23:32;101638.47;;;7.02;50.48
28628;BME280;15815;46.760;19.604;2022-12-20T12:26:09;101627.25;;;6.78;51.08
28628;BME280;15815;46.760;19.604;2022-12-20T12:28:40;101627.25;;;6.78;52.42
28628;BME280;15815;46.760;19.604;2022-12-20T12:31:14;101616.75;;;6.63;51.75
28628;BME280;15815;46.760;19.604;2022-12-20T12:33:49;101610.25;;;6.59;52.78
28628;BME280;15815;46.760;19.604;2022-12-20T12:36:54;101611.06;;;6.71;52.51
28628;BME280;15815;46.760;19.604;2022-12-20T12:45:00;101621.31;;;6.67;52.97
28628;BME280;15815;46.760;19.604;2022-12-20T12:47:39;101635.41;;;6.71;52.63
28628;BME280;15815;46.760;19.604;2022-12-20T12:50:22;101617.28;;;6.44;52.87
28628;BME280;15815;46.760;19.604;2022-12-20T12:52:51;101612.06;;;6.42;53.65
28628;BME280;15815;46.760;19.604;2022-12-20T12:58:33;101628.94;;;6.13;54.21
28628;BME280;15815;46.760;19.604;2022-12-20T13:01:09;101613.22;;;5.87;54.90
28628;BME280;15815;46.760;19.604;2022-12-20T13:11:35;101638.53;;;5.32;56.91
28628;BME280;15815;46.760;19.604;2022-12-20T13:16:39;101625.03;;;5.13;57.80
28628;BME280;15815;46.760;19.604;2022-12-20T13:19:13;101624.50;;;5.20;57.89
28628;BME280;15815;46.760;19.604;2022-12-20T13:21:41;101626.75;;;4.97;57.99
28628;BME280;15815;46.760;19.604;2022-12-20T13:37:58;101628.84;;;4.62;59.32
28628;BME280;15815;46.760;19.604;2022-12-20T13:40:35;101652.78;;;4.54;59.59
28628;BME280;15815;46.760;19.604;2022-12-20T13:43:07;101626.63;;;4.38;60.29
28628;BME280;15815;46.760;19.604;2022-12-20T13:45:38;101634.81;;;4.34;60.53
28628;BME280;15815;46.760;19.604;2022-12-20T13:48:13;101630.38;;;4.33;61.00
28628;BME280;15815;46.760;19.604;2022-12-20T13:50:48;101632.84;;;4.35;60.71
28628;BME280;15815;46.760;19.604;2022-12-20T13:53:19;101637.13;;;4.41;61.25
28628;BME280;15815;46.760;19.604;2022-12-20T13:55:45;101612.53;;;4.34;61.26
28628;BME280;15815;46.760;19.604;2022-12-20T13:58:20;101617.78;;;4.36;61.25
28628;BME280;15815;46.760;19.604;2022-12-20T14:00:47;101604.72;;;4.11;61.56
28628;BME280;15815;46.760;19.604;2022-12-20T14:03:26;101607.50;;;4.19;61.52
28628;BME280;15815;46.760;19.604;2022-12-20T14:06:02;101602.47;;;4.13;62.13
28628;BME280;15815;46.760;19.604;2022-12-20T14:08:32;101606.53;;;4.07;62.35
28628;BME280;15815;46.760;19.604;2022-12-20T14:11:21;101598.03;;;4.03;61.97
28628;BME280;15815;46.760;19.604;2022-12-20T14:16:20;101606.06;;;3.87;62.55
28628;BME280;15815;46.760;19.604;2022-12-20T14:19:02;101608.03;;;3.87;62.82
28628;BME280;15815;46.760;19.604;2022-12-20T14:21:29;101603.44;;;3.82;63.29
28628;BME280;15815;46.760;19.604;2022-12-20T14:23:56;101596.25;;;3.72;63.16
28628;BME280;15815;46.760;19.604;2022-12-20T14:26:36;101600.19;;;3.63;63.77
28628;BME280;15815;46.760;19.604;2022-12-20T14:29:09;101575.31;;;3.58;63.84
28628;BME280;15815;46.760;19.604;2022-12-20T14:31:44;101578.09;;;3.58;64.25
28628;BME280;15815;46.760;19.604;2022-12-20T14:34:15;101557.47;;;3.41;64.38
28628;BME280;15815;46.760;19.604;2022-12-20T14:36:47;101574.16;;;3.41;65.34
28628;BME280;15815;46.760;19.604;2022-12-20T14:44:31;101562.56;;;3.31;65.43
28628;BME280;15815;46.760;19.604;2022-12-20T14:46:58;101549.47;;;3.31;65.00
28628;BME280;15815;46.760;19.604;2022-12-20T14:49:31;101553.53;;;3.25;65.52
28628;BME280;15815;46.760;19.604;2022-12-20T14:52:12;101547.97;;;3.17;66.28
28628;BME280;15815;46.760;19.604;2022-12-20T15:02:58;101532.25;;;2.95;66.53
28628;BME280;15815;46.760;19.604;2022-12-20T15:13:43;101521.09;;;2.77;67.17
28628;BME280;15815;46.760;19.604;2022-12-20T15:16:17;101510.34;;;2.76;66.93
28628;BME280;15815;46.760;19.604;2022-12-20T15:18:43;101506.03;;;2.70;67.75
28628;BME280;15815;46.760;19.604;2022-12-20T15:23:45;101494.91;;;2.61;67.39